KCDN/CDN METAR and TAF weather

Enter ICAO airport designator
Station Type Date Time Source
KCDN METAR 2022/07/03 14:35 UTC NOAA

KCDN 031435Z AUTO 00000KT 10SM CLR 31/23 A3007 RMK AO2 LTG DSNT E AND SE


Station Type Date Time Source
KCDN Decoded METAR 2022/07/03 14:35 UTC NOAA

Station name not available
Jul 03, 2022 - 10:35 AM EDT / 2022.07.03 1435 UTC
Wind: Calm:0
Visibility: 10 mile(s):0
Sky conditions: clear
Weather: Lightning observed
Temperature: 87 F (31 C)
Heat index: 93.9 F (34.4 C):1
Dew Point: 73 F (23 C)
Relative Humidity: 62%
Pressure (altimeter): 30.07 in. Hg (1018 hPa)
ob: KCDN 031435Z AUTO 00000KT 10SM CLR 31/23 A3007 RMK AO2 LTG DSNT E AND SE
cycle: 14

Station Type Date Time Source
KCDN TAF UTC NOAA

Error!

Example: see airport list